Terminal Aerodrome Forecast
Issued by NWS

Home | Current Version | Previous Version | Graphics & Text | Print | Product List | Glossary On
Versions: 1 2 3 4 5 6 7 8 9 10 11 12
000
FTUS43 KICT 021123
TAFRSL
TAF
KRSL 021123Z 0212/0312 19012KT P6SM FEW100
     FM021500 18020G28KT P6SM FEW080
     FM030100 18013KT P6SM FEW100=

USA.gov is the U.S. government's official web portal to all federal, state and local government web resources and services.